createdAt,value
2018-09-26T00:00:26.988Z,9.40
2018-09-26T00:02:58.089Z,9.28
2018-09-26T00:05:26.230Z,9.34
2018-09-26T00:07:54.362Z,9.28
2018-09-26T00:10:22.536Z,9.29
2018-09-26T00:12:50.664Z,9.33
2018-09-26T00:15:18.797Z,9.29
2018-09-26T00:17:46.905Z,9.29
2018-09-26T00:20:15.034Z,9.33
2018-09-26T00:22:43.212Z,9.24
2018-09-26T00:25:11.350Z,9.36
2018-09-26T00:27:39.475Z,9.35
2018-09-26T00:30:14.384Z,9.42
2018-09-26T00:32:42.529Z,9.38
2018-09-26T00:35:10.625Z,9.30
2018-09-26T00:37:38.806Z,9.29
2018-09-26T00:40:07.341Z,9.32
2018-09-26T00:42:35.453Z,9.25
2018-09-26T00:45:03.565Z,9.40
2018-09-26T00:47:31.704Z,9.39
2018-09-26T00:49:59.861Z,9.25
2018-09-26T00:52:28.027Z,9.30
2018-09-26T00:54:56.182Z,9.34
2018-09-26T00:57:24.375Z,9.37
2018-09-26T00:59:52.509Z,9.38
2018-09-26T01:02:20.648Z,9.30
2018-09-26T01:04:48.780Z,9.36
2018-09-26T01:07:16.919Z,9.35
2018-09-26T01:09:45.028Z,9.32
2018-09-26T01:12:13.226Z,9.32
2018-09-26T01:14:41.364Z,9.44
2018-09-26T01:17:09.533Z,9.40
2018-09-26T01:19:37.688Z,9.41
2018-09-26T01:22:05.816Z,9.47
2018-09-26T01:24:33.942Z,9.41
2018-09-26T01:27:02.061Z,9.46
2018-09-26T01:29:30.181Z,9.36
2018-09-26T01:31:58.340Z,9.42
2018-09-26T01:34:26.492Z,9.34
2018-09-26T01:36:54.589Z,9.36
2018-09-26T01:39:22.700Z,9.25
2018-09-26T01:41:50.844Z,9.33
2018-09-26T01:44:18.957Z,9.27
2018-09-26T01:46:47.132Z,9.19
2018-09-26T01:49:15.304Z,9.26
2018-09-26T01:51:43.440Z,9.23
2018-09-26T01:54:11.561Z,9.20
2018-09-26T01:56:39.692Z,9.18
2018-09-26T01:59:07.792Z,9.20
2018-09-26T02:01:35.924Z,9.17
2018-09-26T02:04:04.047Z,9.13
2018-09-26T02:06:32.176Z,9.07
2018-09-26T02:09:00.305Z,9.00
2018-09-26T02:11:28.436Z,8.95
2018-09-26T02:13:56.556Z,8.85
2018-09-26T02:16:24.664Z,8.84
2018-09-26T02:18:52.742Z,8.87
2018-09-26T02:21:20.951Z,8.86
2018-09-26T02:23:49.127Z,8.74
2018-09-26T02:26:17.212Z,8.78
2018-09-26T02:28:45.356Z,8.86
2018-09-26T02:31:13.488Z,8.87
2018-09-26T02:33:42.416Z,8.91
2018-09-26T02:36:10.523Z,8.84
2018-09-26T02:38:38.689Z,8.82
2018-09-26T02:41:06.790Z,8.88
2018-09-26T02:43:34.900Z,8.95
2018-09-26T02:48:42.832Z,8.96
2018-09-26T02:51:10.999Z,8.97
2018-09-26T02:53:39.170Z,8.98
2018-09-26T02:56:07.312Z,9.05
2018-09-26T02:58:35.441Z,8.95
2018-09-26T03:01:03.545Z,9.03
2018-09-26T03:03:31.657Z,8.85
2018-09-26T03:05:59.810Z,8.89
2018-09-26T03:08:27.912Z,8.76
2018-09-26T03:10:56.085Z,8.70
2018-09-26T03:13:24.198Z,8.80
2018-09-26T03:15:52.400Z,8.86
2018-09-26T03:18:20.547Z,8.92
2018-09-26T03:20:48.652Z,8.94
2018-09-26T03:23:16.971Z,8.97
2018-09-26T03:25:45.095Z,8.80
2018-09-26T03:28:13.233Z,8.85
2018-09-26T03:30:41.348Z,8.85
2018-09-26T03:33:09.432Z,8.87
2018-09-26T03:35:37.560Z,8.88
2018-09-26T03:38:05.649Z,8.93
2018-09-26T03:40:33.713Z,8.94
2018-09-26T03:43:01.812Z,8.92
2018-09-26T03:45:29.927Z,9.01
2018-09-26T03:47:58.156Z,9.01
2018-09-26T03:50:26.224Z,9.03
2018-09-26T03:52:54.348Z,8.93
2018-09-26T03:55:22.465Z,8.85
2018-09-26T03:57:50.596Z,8.76
2018-09-26T04:00:18.694Z,8.87
2018-09-26T04:02:46.828Z,8.93
2018-09-26T04:05:15.010Z,8.95
2018-09-26T04:07:43.109Z,8.84
2018-09-26T04:10:11.207Z,8.81
2018-09-26T04:12:39.451Z,8.83
2018-09-26T04:15:07.492Z,8.78
2018-09-26T04:17:35.686Z,8.80
2018-09-26T04:20:03.792Z,8.77
2018-09-26T04:22:31.932Z,8.69
2018-09-26T04:25:00.045Z,8.71
2018-09-26T04:27:28.310Z,8.80
2018-09-26T04:29:56.324Z,8.84
2018-09-26T04:32:24.549Z,8.82
2018-09-26T04:34:52.590Z,8.80
2018-09-26T04:37:20.728Z,8.70
2018-09-26T04:39:48.847Z,8.69
2018-09-26T04:42:16.983Z,8.62
2018-09-26T04:44:45.093Z,8.70
2018-09-26T04:47:13.893Z,8.79
2018-09-26T04:49:44.817Z,8.76
2018-09-26T04:52:12.990Z,8.75
2018-09-26T04:54:41.129Z,8.91
2018-09-26T04:57:09.245Z,8.82
2018-09-26T04:59:37.393Z,8.81
2018-09-26T05:02:05.516Z,8.88
2018-09-26T05:04:33.621Z,8.82
2018-09-26T05:07:01.764Z,8.80
2018-09-26T05:09:29.905Z,8.84
2018-09-26T05:11:58.032Z,8.85
2018-09-26T05:14:26.177Z,8.83
2018-09-26T05:16:54.300Z,8.74
2018-09-26T05:19:22.445Z,8.69
2018-09-26T05:21:50.588Z,8.49
2018-09-26T05:24:18.704Z,8.52
2018-09-26T05:26:46.883Z,8.42
2018-09-26T05:29:14.996Z,8.43
2018-09-26T05:31:43.145Z,8.42
2018-09-26T05:34:11.272Z,8.41
2018-09-26T05:36:39.417Z,8.50
2018-09-26T05:39:09.618Z,8.50
2018-09-26T05:41:37.764Z,8.48
2018-09-26T05:44:05.888Z,8.41
2018-09-26T05:46:34.022Z,8.46
2018-09-26T05:49:02.167Z,8.54
2018-09-26T05:51:30.350Z,8.44
2018-09-26T05:53:58.440Z,8.54
2018-09-26T05:56:26.764Z,8.56
2018-09-26T05:58:54.900Z,8.57
2018-09-26T06:01:23.062Z,8.48
2018-09-26T06:03:51.216Z,8.59
2018-09-26T06:06:19.355Z,8.60
2018-09-26T06:08:47.495Z,8.76
2018-09-26T06:11:15.632Z,8.73
2018-09-26T06:13:43.996Z,8.70
2018-09-26T06:16:12.148Z,8.79
2018-09-26T06:18:40.587Z,8.91
2018-09-26T06:21:08.719Z,9.03
2018-09-26T06:23:36.880Z,9.14
2018-09-26T06:26:05.013Z,9.23
2018-09-26T06:28:33.117Z,9.20
2018-09-26T06:31:01.250Z,9.21
2018-09-26T06:33:29.376Z,9.24
2018-09-26T06:35:57.552Z,9.26
2018-09-26T06:38:25.873Z,9.29
2018-09-26T06:40:54.104Z,9.29
2018-09-26T06:43:22.240Z,9.19
2018-09-26T06:45:50.373Z,9.31
2018-09-26T06:48:18.565Z,9.28
2018-09-26T06:50:46.748Z,9.30
2018-09-26T06:53:14.926Z,9.40
2018-09-26T06:55:43.006Z,9.39
2018-09-26T06:58:11.159Z,9.53
2018-09-26T07:00:39.289Z,9.64
2018-09-26T07:03:07.470Z,9.70
2018-09-26T07:05:35.586Z,9.73
2018-09-26T07:08:03.748Z,9.79
2018-09-26T07:10:31.903Z,9.96
2018-09-26T07:13:00.056Z,10.03
2018-09-26T07:15:28.236Z,10.13
2018-09-26T07:17:56.340Z,10.25
2018-09-26T07:20:24.448Z,10.45
2018-09-26T07:22:52.781Z,10.61
2018-09-26T07:25:20.936Z,10.78
2018-09-26T07:27:49.039Z,10.93
2018-09-26T07:30:17.388Z,11.08
2018-09-26T07:32:45.521Z,11.11
2018-09-26T07:35:13.660Z,11.20
2018-09-26T07:37:41.800Z,11.23
2018-09-26T07:40:09.945Z,11.32
2018-09-26T07:42:38.081Z,11.35
2018-09-26T07:45:06.202Z,11.32
2018-09-26T07:47:34.349Z,11.42
2018-09-26T07:50:02.511Z,11.36
2018-09-26T07:52:30.674Z,11.50
2018-09-26T07:54:58.801Z,11.67
2018-09-26T07:57:26.928Z,11.66
2018-09-26T07:59:55.060Z,11.72
2018-09-26T08:02:23.164Z,11.72
2018-09-26T08:04:51.335Z,11.80
2018-09-26T08:07:19.513Z,11.96
2018-09-26T08:09:47.639Z,11.99
2018-09-26T08:12:15.810Z,12.05
2018-09-26T08:14:43.962Z,12.04
2018-09-26T08:17:12.094Z,12.28
2018-09-26T08:19:40.242Z,12.43
2018-09-26T08:22:08.377Z,12.46
2018-09-26T08:24:36.528Z,12.43
2018-09-26T08:27:04.676Z,12.37
2018-09-26T08:29:32.838Z,12.63
2018-09-26T08:32:00.965Z,12.58
2018-09-26T08:34:29.153Z,12.65
2018-09-26T08:36:57.252Z,12.57
2018-09-26T08:39:25.408Z,12.61
2018-09-26T08:41:53.577Z,12.39
2018-09-26T08:44:21.729Z,12.49
2018-09-26T08:46:49.869Z,12.57
2018-09-26T08:49:18.017Z,12.82
2018-09-26T08:51:46.132Z,12.75
2018-09-26T08:54:14.276Z,12.92
2018-09-26T08:56:42.388Z,12.90
2018-09-26T08:59:10.536Z,12.93
2018-09-26T09:01:43.989Z,13.16
2018-09-26T09:04:12.132Z,13.11
2018-09-26T09:06:40.302Z,13.13
2018-09-26T09:09:08.959Z,13.11
2018-09-26T09:11:37.470Z,13.28
2018-09-26T09:14:05.600Z,13.14
2018-09-26T09:16:34.016Z,13.24
2018-09-26T09:19:02.232Z,13.35
2018-09-26T09:21:30.397Z,13.44
2018-09-26T09:23:58.578Z,13.40
2018-09-26T09:26:26.745Z,13.46
2018-09-26T09:28:55.002Z,13.49
2018-09-26T09:31:23.241Z,13.51
2018-09-26T09:33:51.376Z,13.59
2018-09-26T09:36:19.498Z,13.92
2018-09-26T09:38:47.688Z,14.13
2018-09-26T09:41:15.835Z,14.12
2018-09-26T09:43:44.024Z,13.95
2018-09-26T09:46:12.166Z,13.81
2018-09-26T09:48:40.308Z,13.72
2018-09-26T09:51:08.433Z,13.79
2018-09-26T09:53:36.584Z,13.74
2018-09-26T09:56:04.762Z,13.63
2018-09-26T09:58:32.891Z,13.65
2018-09-26T10:01:06.317Z,13.75
2018-09-26T10:03:34.468Z,13.69
2018-09-26T10:06:02.637Z,13.80
2018-09-26T10:08:30.808Z,13.94
2018-09-26T10:10:58.945Z,14.01
2018-09-26T10:13:27.109Z,14.05
2018-09-26T10:15:55.196Z,14.01
2018-09-26T10:18:23.359Z,13.97
2018-09-26T10:20:51.538Z,14.03
2018-09-26T10:23:19.712Z,14.03
2018-09-26T10:25:47.877Z,14.17
2018-09-26T10:28:16.030Z,14.21
2018-09-26T10:30:44.161Z,14.21
2018-09-26T10:33:12.319Z,14.22
2018-09-26T10:35:40.421Z,14.27
2018-09-26T10:38:08.605Z,14.39
2018-09-26T10:40:36.752Z,14.48
2018-09-26T10:43:04.892Z,14.57
2018-09-26T10:45:33.061Z,14.69
2018-09-26T10:48:01.186Z,14.91
2018-09-26T10:50:29.321Z,14.87
2018-09-26T10:52:57.464Z,14.65
2018-09-26T10:55:25.580Z,14.82
2018-09-26T10:57:53.739Z,14.79
2018-09-26T11:00:21.888Z,14.89
2018-09-26T11:02:50.074Z,14.90
2018-09-26T11:05:18.190Z,15.09
2018-09-26T11:07:46.334Z,15.09
2018-09-26T11:10:14.517Z,15.11
2018-09-26T11:12:42.733Z,15.24
2018-09-26T11:15:10.852Z,15.20
2018-09-26T11:17:38.964Z,14.96
2018-09-26T11:20:07.564Z,15.17
2018-09-26T11:22:35.905Z,15.48
2018-09-26T11:25:04.112Z,15.88
2018-09-26T11:27:32.276Z,16.25
2018-09-26T11:30:00.468Z,15.65
2018-09-26T11:32:28.691Z,15.88
2018-09-26T11:34:56.877Z,15.91
2018-09-26T11:37:25.025Z,16.00
2018-09-26T11:39:54.069Z,15.79
2018-09-26T11:42:22.257Z,15.54
2018-09-26T11:44:50.539Z,15.58
2018-09-26T11:47:18.677Z,15.70
2018-09-26T11:49:46.804Z,15.49
2018-09-26T11:52:15.056Z,15.48
2018-09-26T11:54:43.161Z,15.61
2018-09-26T11:57:11.331Z,15.62
2018-09-26T11:59:39.483Z,15.87
2018-09-26T12:02:07.691Z,15.73
2018-09-26T12:04:35.854Z,15.57
2018-09-26T12:07:04.319Z,15.65
2018-09-26T12:09:32.627Z,15.65
2018-09-26T12:12:00.769Z,15.91
2018-09-26T12:14:28.892Z,16.28
2018-09-26T12:16:57.037Z,16.59
2018-09-26T12:19:25.236Z,16.92
2018-09-26T12:21:53.442Z,17.20
2018-09-26T12:24:21.589Z,16.62
2018-09-26T12:26:49.652Z,17.05
2018-09-26T12:29:17.818Z,17.26
2018-09-26T12:31:45.963Z,17.03
2018-09-26T12:34:14.142Z,17.22
2018-09-26T12:36:42.278Z,17.36
2018-09-26T12:39:11.065Z,17.11
2018-09-26T12:41:39.351Z,16.68
2018-09-26T12:44:07.510Z,16.81
2018-09-26T12:46:35.690Z,16.75
2018-09-26T12:49:03.872Z,16.99
2018-09-26T12:51:32.048Z,16.99
2018-09-26T12:54:00.261Z,17.16
2018-09-26T12:56:28.351Z,17.24
2018-09-26T12:58:56.540Z,17.06
2018-09-26T13:01:24.672Z,17.26
2018-09-26T13:03:52.844Z,17.29
2018-09-26T13:06:21.034Z,17.40
2018-09-26T13:08:49.177Z,17.12
2018-09-26T13:11:17.329Z,17.20
2018-09-26T13:13:45.489Z,17.22
2018-09-26T13:16:13.692Z,16.96
2018-09-26T13:18:41.783Z,16.64
2018-09-26T13:21:09.956Z,16.52
2018-09-26T13:28:37.292Z,16.44
2018-09-26T13:31:05.501Z,16.57
2018-09-26T13:33:33.637Z,16.61
2018-09-26T13:36:01.836Z,16.65
2018-09-26T13:38:30.013Z,16.79
2018-09-26T13:40:58.178Z,16.72
2018-09-26T13:43:26.341Z,16.66
2018-09-26T13:45:54.596Z,16.65
2018-09-26T13:48:22.666Z,16.71
2018-09-26T13:50:50.877Z,16.70
2018-09-26T13:53:19.004Z,16.72
2018-09-26T13:55:47.187Z,16.63
2018-09-26T13:58:15.378Z,16.63
2018-09-26T14:00:43.596Z,16.61
2018-09-26T14:03:11.705Z,16.63
2018-09-26T14:05:39.837Z,16.58
2018-09-26T14:08:07.993Z,16.61
2018-09-26T14:10:36.183Z,16.58
2018-09-26T14:13:04.325Z,16.53
2018-09-26T14:15:32.475Z,16.53
2018-09-26T14:18:00.644Z,16.59
2018-09-26T14:20:28.985Z,16.63
2018-09-26T14:22:57.189Z,16.70
2018-09-26T14:25:25.265Z,16.70
2018-09-26T14:27:53.382Z,16.74
2018-09-26T14:30:21.651Z,16.69
2018-09-26T14:32:49.763Z,16.72
2018-09-26T14:35:17.977Z,16.67
2018-09-26T14:37:46.086Z,16.78
2018-09-26T14:40:14.251Z,16.72
2018-09-26T14:42:42.418Z,16.80
2018-09-26T14:45:10.615Z,16.80
2018-09-26T14:47:38.777Z,16.71
2018-09-26T14:50:07.659Z,16.63
2018-09-26T14:52:35.869Z,16.61
2018-09-26T14:55:04.041Z,16.66
2018-09-26T14:57:32.167Z,16.68
2018-09-26T15:00:00.316Z,16.64
2018-09-26T15:02:28.477Z,16.64
2018-09-26T15:04:56.687Z,16.73
2018-09-26T15:07:24.846Z,16.61
2018-09-26T15:09:53.040Z,16.56
2018-09-26T15:12:21.221Z,16.42
2018-09-26T15:14:49.281Z,16.38
2018-09-26T15:17:17.428Z,16.29
2018-09-26T15:19:45.569Z,16.26
2018-09-26T15:22:13.792Z,16.36
2018-09-26T15:24:41.913Z,16.33
2018-09-26T15:27:10.101Z,16.34
2018-09-26T15:29:38.245Z,16.42
2018-09-26T15:32:06.400Z,16.40
2018-09-26T15:34:34.516Z,16.39
2018-09-26T15:37:02.693Z,16.46
2018-09-26T15:39:37.149Z,16.44
2018-09-26T15:42:05.337Z,16.41
2018-09-26T15:44:33.476Z,16.43
2018-09-26T15:47:01.660Z,16.44
2018-09-26T15:49:29.818Z,16.36
2018-09-26T15:51:57.963Z,16.40
2018-09-26T15:54:26.293Z,16.40
2018-09-26T15:56:54.767Z,16.33
2018-09-26T15:59:22.884Z,16.30
2018-09-26T16:01:52.175Z,16.36
2018-09-26T16:04:20.417Z,16.37
2018-09-26T16:06:48.505Z,16.33
2018-09-26T16:09:16.781Z,16.42
2018-09-26T16:11:44.892Z,16.38
2018-09-26T16:14:13.112Z,16.43
2018-09-26T16:16:41.261Z,16.40
2018-09-26T16:19:09.468Z,16.35
2018-09-26T16:21:37.637Z,16.28
2018-09-26T16:24:05.900Z,16.37
2018-09-26T16:26:34.089Z,16.31
2018-09-26T16:29:02.233Z,16.37
2018-09-26T16:31:30.489Z,16.36
2018-09-26T16:33:58.628Z,16.32
2018-09-26T16:36:26.740Z,16.41
2018-09-26T16:38:54.943Z,16.30
2018-09-26T16:41:23.124Z,16.26
2018-09-26T16:43:51.274Z,16.21
2018-09-26T16:46:19.483Z,16.22
2018-09-26T16:48:47.649Z,16.27
2018-09-26T16:51:15.765Z,16.27
2018-09-26T16:53:44.046Z,16.20
2018-09-26T16:56:12.150Z,16.21
2018-09-26T16:58:40.349Z,16.23
2018-09-26T17:01:08.498Z,16.16
2018-09-26T17:03:36.624Z,16.11
2018-09-26T17:06:04.843Z,16.09
2018-09-26T17:08:32.984Z,15.98
2018-09-26T17:11:01.118Z,15.98
2018-09-26T17:13:29.277Z,15.96
2018-09-26T17:15:57.441Z,16.06
2018-09-26T17:18:25.680Z,15.94
2018-09-26T17:20:53.753Z,15.97
2018-09-26T17:23:21.968Z,16.01
2018-09-26T17:25:50.117Z,15.97
2018-09-26T17:28:18.364Z,15.85
2018-09-26T17:30:46.499Z,15.86
2018-09-26T17:33:14.668Z,15.83
2018-09-26T17:35:42.780Z,15.80
2018-09-26T17:38:10.936Z,15.86
2018-09-26T17:40:39.103Z,15.85
2018-09-26T17:43:07.610Z,15.92
2018-09-26T17:45:35.784Z,15.95
2018-09-26T17:48:03.937Z,16.02
2018-09-26T17:50:32.085Z,16.09
2018-09-26T17:53:00.249Z,16.02
2018-09-26T17:55:28.488Z,15.93
2018-09-26T17:57:56.652Z,15.93
2018-09-26T18:00:24.851Z,15.89
2018-09-26T18:02:52.925Z,15.88
2018-09-26T18:05:21.189Z,15.93
2018-09-26T18:07:49.842Z,15.94
2018-09-26T18:10:17.981Z,15.95
2018-09-26T18:12:46.136Z,15.94
2018-09-26T18:15:14.268Z,15.88
2018-09-26T18:17:42.403Z,15.93
2018-09-26T18:20:10.529Z,15.97
2018-09-26T18:22:38.687Z,15.92
2018-09-26T18:25:06.876Z,15.92
2018-09-26T18:27:35.031Z,15.93
2018-09-26T18:30:03.146Z,16.03
2018-09-26T18:32:31.297Z,16.07
2018-09-26T18:34:59.448Z,15.96
2018-09-26T18:37:27.602Z,15.97
2018-09-26T18:39:55.734Z,16.03
2018-09-26T18:42:23.877Z,16.07
2018-09-26T18:44:52.121Z,16.04
2018-09-26T18:47:20.211Z,16.03
2018-09-26T18:49:48.386Z,16.01
2018-09-26T18:52:16.524Z,16.06
2018-09-26T18:54:44.652Z,15.99
2018-09-26T18:57:12.889Z,16.00
2018-09-26T18:59:41.090Z,15.97
2018-09-26T19:02:09.217Z,16.00
2018-09-26T19:04:37.449Z,16.05
2018-09-26T19:07:05.648Z,15.98
2018-09-26T19:09:33.823Z,16.05
2018-09-26T19:12:02.045Z,16.02
2018-09-26T19:14:30.170Z,16.01
2018-09-26T19:16:58.293Z,16.06
2018-09-26T19:19:26.445Z,16.04
2018-09-26T19:21:54.661Z,16.00
2018-09-26T19:24:22.788Z,16.10
2018-09-26T19:26:50.939Z,16.13
2018-09-26T19:29:19.084Z,16.10
2018-09-26T19:31:47.248Z,16.10
2018-09-26T19:34:15.364Z,16.03
2018-09-26T19:36:43.484Z,15.97
2018-09-26T19:39:12.031Z,16.05
2018-09-26T19:41:40.405Z,16.03
2018-09-26T19:44:08.644Z,15.96
2018-09-26T19:46:36.789Z,15.89
2018-09-26T19:49:04.960Z,15.91
2018-09-26T19:51:33.206Z,15.92
2018-09-26T19:54:01.343Z,15.93
2018-09-26T19:56:29.484Z,15.94
2018-09-26T19:58:57.604Z,15.94
2018-09-26T20:01:25.794Z,16.04
2018-09-26T20:03:54.082Z,16.10
2018-09-26T20:06:22.231Z,16.09
2018-09-26T20:08:50.516Z,16.01
2018-09-26T20:11:18.651Z,16.08
2018-09-26T20:13:46.777Z,16.06
2018-09-26T20:16:14.927Z,16.08
2018-09-26T20:18:43.077Z,16.03
2018-09-26T20:21:11.233Z,16.05
2018-09-26T20:23:39.378Z,16.01
2018-09-26T20:26:07.513Z,16.02
2018-09-26T20:28:35.663Z,16.01
2018-09-26T20:31:03.871Z,15.98
2018-09-26T20:33:31.976Z,15.90
2018-09-26T20:36:00.155Z,15.94
2018-09-26T20:38:28.296Z,15.85
2018-09-26T20:40:56.445Z,15.82
2018-09-26T20:43:24.580Z,15.80
2018-09-26T20:45:52.733Z,15.79
2018-09-26T20:48:20.856Z,15.78
2018-09-26T20:50:48.989Z,15.66
2018-09-26T20:53:17.105Z,15.63
2018-09-26T20:55:45.270Z,15.53
2018-09-26T20:58:13.410Z,15.56
2018-09-26T21:00:41.620Z,15.58
2018-09-26T21:03:09.662Z,15.54
2018-09-26T21:05:37.794Z,15.43
2018-09-26T21:08:05.963Z,15.40
2018-09-26T21:10:34.088Z,15.44
2018-09-26T21:13:02.294Z,15.44
2018-09-26T21:15:30.411Z,15.38
2018-09-26T21:17:58.630Z,15.41
2018-09-26T21:20:26.701Z,15.44
2018-09-26T21:22:54.858Z,15.46
2018-09-26T21:25:22.989Z,15.48
2018-09-26T21:27:51.132Z,15.36
2018-09-26T21:30:19.285Z,15.47
2018-09-26T21:32:47.397Z,15.49
2018-09-26T21:35:15.546Z,15.43
2018-09-26T21:37:43.708Z,15.42
2018-09-26T21:40:11.876Z,15.47
2018-09-26T21:42:40.051Z,15.46
2018-09-26T21:45:08.233Z,15.45
2018-09-26T21:47:36.376Z,15.34
2018-09-26T21:50:04.546Z,15.38
2018-09-26T21:52:32.669Z,15.40
2018-09-26T21:55:00.908Z,15.46
2018-09-26T21:57:29.101Z,15.45
2018-09-26T21:59:57.368Z,15.47
2018-09-26T22:02:25.485Z,15.47
2018-09-26T22:04:53.621Z,15.44
2018-09-26T22:07:21.804Z,15.41
2018-09-26T22:09:49.971Z,15.41
2018-09-26T22:12:18.120Z,15.42
2018-09-26T22:14:46.279Z,15.43
2018-09-26T22:17:14.408Z,15.46
2018-09-26T22:19:42.565Z,15.36
2018-09-26T22:22:10.717Z,15.31
2018-09-26T22:24:38.890Z,15.30
2018-09-26T22:27:07.033Z,15.41
2018-09-26T22:29:35.154Z,15.40
2018-09-26T22:32:03.260Z,15.35
2018-09-26T22:34:31.397Z,15.33
2018-09-26T22:36:59.514Z,15.24
2018-09-26T22:39:27.660Z,15.24
2018-09-26T22:41:55.795Z,15.29
2018-09-26T22:44:23.933Z,15.30
2018-09-26T22:46:52.058Z,15.41
2018-09-26T22:49:20.209Z,15.30
2018-09-26T22:51:48.371Z,15.24
2018-09-26T22:54:16.524Z,15.25
2018-09-26T22:56:44.647Z,15.23
2018-09-26T22:59:12.790Z,15.28
2018-09-26T23:01:40.928Z,15.32
2018-09-26T23:04:09.076Z,15.27
2018-09-26T23:06:37.277Z,15.20
2018-09-26T23:09:08.294Z,15.24
2018-09-26T23:11:36.432Z,15.26
2018-09-26T23:14:04.557Z,15.28
2018-09-26T23:16:32.692Z,15.39
2018-09-26T23:19:00.864Z,15.35
2018-09-26T23:21:29.026Z,15.32
2018-09-26T23:23:57.150Z,15.28
2018-09-26T23:26:25.284Z,15.31
2018-09-26T23:28:53.434Z,15.32
2018-09-26T23:31:21.606Z,15.27
2018-09-26T23:33:49.749Z,15.23
2018-09-26T23:36:17.906Z,15.31
2018-09-26T23:38:46.044Z,15.27
2018-09-26T23:41:14.196Z,15.22
2018-09-26T23:48:42.713Z,15.27
2018-09-26T23:51:10.805Z,15.26
2018-09-26T23:53:40.077Z,15.19
2018-09-26T23:56:08.181Z,15.28
2018-09-26T23:58:36.328Z,15.18
